OHTID EFNU-EFHV

Flight info

Callsign OHTID
Flight time 0h 8m
Altitude 3000
Route DCT
Aircraft DA62/L-SDE3/S

Departure

Time 2026-04-14 13:47
Airport Nummela Airfield (EFNU)

Arrival

Time 2026-04-14 13:56
Airport Hyvinkää Airfield (EFHV)
Time Latitude Longitude Altitude Speed Heading
2026-04-14 13:47 60.37643 24.39710 3006 ft 184 kts 44°
2026-04-14 13:47 60.38629 24.41392 2997 ft 181 kts 43°
2026-04-14 13:48 60.39608 24.42989 3005 ft 182 kts 42°
2026-04-14 13:48 60.40577 24.44603 3009 ft 180 kts 43°
2026-04-14 13:48 60.41535 24.46224 3007 ft 179 kts 43°
2026-04-14 13:48 60.42477 24.47824 2999 ft 180 kts 43°
2026-04-14 13:49 60.43430 24.49455 3005 ft 179 kts 43°
2026-04-14 13:49 60.44375 24.51082 3010 ft 178 kts 44°
2026-04-14 13:49 60.45325 24.52730 2982 ft 180 kts 43°
2026-04-14 13:49 60.46286 24.54326 3010 ft 178 kts 44°
2026-04-14 13:50 60.47235 24.55979 2986 ft 180 kts 44°
2026-04-14 13:50 60.48200 24.57563 3006 ft 178 kts 42°
2026-04-14 13:50 60.49154 24.59197 2979 ft 180 kts 44°
2026-04-14 13:50 60.50109 24.60816 3004 ft 179 kts 43°
2026-04-14 13:51 60.51058 24.62448 2991 ft 178 kts 43°
2026-04-14 13:51 60.52001 24.64078 2995 ft 179 kts 43°
2026-04-14 13:51 60.52952 24.65728 2991 ft 180 kts 44°
2026-04-14 13:51 60.53892 24.67368 2971 ft 167 kts 44°
2026-04-14 13:52 60.54709 24.68773 2046 ft 151 kts 42°
2026-04-14 13:52 60.55562 24.70272 2004 ft 167 kts 42°
2026-04-14 13:52 60.56453 24.71836 1996 ft 170 kts 44°
2026-04-14 13:52 60.57357 24.73408 1993 ft 172 kts 43°
2026-04-14 13:53 60.58263 24.75002 2006 ft 173 kts 44°
2026-04-14 13:53 60.59172 24.76613 1998 ft 173 kts 43°
2026-04-14 13:53 60.60072 24.78220 1853 ft 168 kts 43°
2026-04-14 13:53 60.60855 24.79871 1612 ft 153 kts 55°
2026-04-14 13:54 60.61468 24.81569 1393 ft 145 kts 59°
2026-04-14 13:54 60.62078 24.83075 1183 ft 138 kts 49°
2026-04-14 13:54 60.62722 24.84464 1018 ft 135 kts 53°
2026-04-14 13:54 60.63276 24.85930 1132 ft 123 kts 56°
2026-04-14 13:55 60.63824 24.87240 1223 ft 120 kts 51°
2026-04-14 13:55 60.64317 24.88563 918 ft 99 kts 64°
2026-04-14 13:55 60.64934 24.88963 572 ft 108 kts 345°
2026-04-14 13:55 60.65433 24.88118 438 ft 66 kts 316°
2026-04-14 13:56 60.65582 24.87847 440 ft 6 kts 322°